sensor_id;sensor_type;location;lat;lon;timestamp;temperature;humidity
59771;DHT22;45649;53.014;6.600;2023-02-28T16:47:10;6.50;99.90
59771;DHT22;45649;53.014;6.600;2023-02-28T16:49:37;6.50;88.60
59771;DHT22;45649;53.014;6.600;2023-02-28T16:52:03;6.40;88.60
59771;DHT22;45649;53.014;6.600;2023-02-28T16:54:31;6.40;90.40
59771;DHT22;45649;53.014;6.600;2023-02-28T16:56:57;6.40;90.90
59771;DHT22;45649;53.014;6.600;2023-02-28T16:59:23;6.40;91.70
59771;DHT22;45649;53.014;6.600;2023-02-28T17:01:50;6.30;89.40
59771;DHT22;45649;53.014;6.600;2023-02-28T17:04:17;6.40;90.40
59771;DHT22;45649;53.014;6.600;2023-02-28T17:06:43;6.40;90.40
59771;DHT22;45649;53.014;6.600;2023-02-28T17:09:20;6.40;90.90
59771;DHT22;45649;53.014;6.600;2023-02-28T17:11:46;6.40;92.20
59771;DHT22;45649;53.014;6.600;2023-02-28T17:14:12;6.40;91.60
59771;DHT22;45649;53.014;6.600;2023-02-28T17:16:40;6.40;90.40
59771;DHT22;45649;53.014;6.600;2023-02-28T17:19:10;6.30;90.40
59771;DHT22;45649;53.014;6.600;2023-02-28T17:21:36;6.30;91.20
59771;DHT22;45649;53.014;6.600;2023-02-28T17:24:02;6.20;90.60
59771;DHT22;45649;53.014;6.600;2023-02-28T17:26:28;6.20;90.30
59771;DHT22;45649;53.014;6.600;2023-02-28T17:28:55;6.20;90.60
59771;DHT22;45649;53.014;6.600;2023-02-28T17:31:23;6.20;90.60
59771;DHT22;45649;53.014;6.600;2023-02-28T17:33:49;6.10;90.70
59771;DHT22;45649;53.014;6.600;2023-02-28T17:36:16;6.20;91.40
59771;DHT22;45649;53.014;6.600;2023-02-28T17:38:43;6.20;91.20
59771;DHT22;45649;53.014;6.600;2023-02-28T17:41:13;6.20;91.00
59771;DHT22;45649;53.014;6.600;2023-02-28T17:43:39;6.20;91.30
59771;DHT22;45649;53.014;6.600;2023-02-28T17:46:08;6.10;91.20
59771;DHT22;45649;53.014;6.600;2023-02-28T17:48:39;6.00;90.30
59771;DHT22;45649;53.014;6.600;2023-02-28T17:51:05;6.10;89.90
59771;DHT22;45649;53.014;6.600;2023-02-28T17:53:31;6.00;89.90
59771;DHT22;45649;53.014;6.600;2023-02-28T17:55:56;6.00;90.30
59771;DHT22;45649;53.014;6.600;2023-02-28T17:58:22;6.00;91.10
59771;DHT22;45649;53.014;6.600;2023-02-28T18:00:48;6.00;91.30
59771;DHT22;45649;53.014;6.600;2023-02-28T18:03:19;5.90;91.40
59771;DHT22;45649;53.014;6.600;2023-02-28T18:05:46;5.90;91.50
59771;DHT22;45649;53.014;6.600;2023-02-28T18:08:12;5.90;91.40
59771;DHT22;45649;53.014;6.600;2023-02-28T18:10:38;5.80;91.90
59771;DHT22;45649;53.014;6.600;2023-02-28T18:13:04;5.80;91.30
59771;DHT22;45649;53.014;6.600;2023-02-28T18:15:30;6.10;93.90
59771;DHT22;45649;53.014;6.600;2023-02-28T18:17:56;6.00;93.90
59771;DHT22;45649;53.014;6.600;2023-02-28T18:20:22;5.90;93.40
59771;DHT22;45649;53.014;6.600;2023-02-28T18:22:48;5.70;93.00
59771;DHT22;45649;53.014;6.600;2023-02-28T18:25:13;5.60;93.60
59771;DHT22;45649;53.014;6.600;2023-02-28T18:27:42;5.50;93.30
59771;DHT22;45649;53.014;6.600;2023-02-28T18:30:19;5.30;92.90
59771;DHT22;45649;53.014;6.600;2023-02-28T18:32:46;5.30;92.60
59771;DHT22;45649;53.014;6.600;2023-02-28T18:35:11;5.40;92.20
59771;DHT22;45649;53.014;6.600;2023-02-28T18:37:37;5.40;91.80
59771;DHT22;45649;53.014;6.600;2023-02-28T18:40:03;5.30;91.90
59771;DHT22;45649;53.014;6.600;2023-02-28T18:42:29;5.30;92.00
59771;DHT22;45649;53.014;6.600;2023-02-28T18:44:55;5.30;92.10
59771;DHT22;45649;53.014;6.600;2023-02-28T18:47:20;5.20;93.10
59771;DHT22;45649;53.014;6.600;2023-02-28T18:49:46;5.10;93.70
59771;DHT22;45649;53.014;6.600;2023-02-28T18:52:12;5.00;94.10
59771;DHT22;45649;53.014;6.600;2023-02-28T18:54:38;5.00;94.30
59771;DHT22;45649;53.014;6.600;2023-02-28T18:57:04;5.00;94.20
59771;DHT22;45649;53.014;6.600;2023-02-28T18:59:30;5.00;93.80
59771;DHT22;45649;53.014;6.600;2023-02-28T19:01:55;4.90;93.90
59771;DHT22;45649;53.014;6.600;2023-02-28T19:04:23;4.90;94.40
59771;DHT22;45649;53.014;6.600;2023-02-28T19:06:49;5.00;94.50
59771;DHT22;45649;53.014;6.600;2023-02-28T19:09:14;4.90;94.80
59771;DHT22;45649;53.014;6.600;2023-02-28T19:11:40;4.90;94.80
59771;DHT22;45649;53.014;6.600;2023-02-28T19:14:06;4.70;95.00
59771;DHT22;45649;53.014;6.600;2023-02-28T19:16:34;4.70;95.70
59771;DHT22;45649;53.014;6.600;2023-02-28T19:18:59;4.50;95.20
59771;DHT22;45649;53.014;6.600;2023-02-28T19:21:25;4.30;95.20
59771;DHT22;45649;53.014;6.600;2023-02-28T19:23:51;4.10;96.00
59771;DHT22;45649;53.014;6.600;2023-02-28T19:26:24;4.10;95.90
59771;DHT22;45649;53.014;6.600;2023-02-28T19:28:51;4.10;96.30
59771;DHT22;45649;53.014;6.600;2023-02-28T19:31:22;4.10;96.50
59771;DHT22;45649;53.014;6.600;2023-02-28T19:33:48;4.10;96.30
59771;DHT22;45649;53.014;6.600;2023-02-28T19:36:17;4.20;96.30
59771;DHT22;45649;53.014;6.600;2023-02-28T19:38:43;4.20;96.10
59771;DHT22;45649;53.014;6.600;2023-02-28T19:41:12;4.20;95.80
59771;DHT22;45649;53.014;6.600;2023-02-28T19:43:38;4.50;94.00
59771;DHT22;45649;53.014;6.600;2023-02-28T19:46:05;4.40;94.20
59771;DHT22;45649;53.014;6.600;2023-02-28T19:48:31;4.40;94.50
59771;DHT22;45649;53.014;6.600;2023-02-28T19:50:59;4.40;95.10
59771;DHT22;45649;53.014;6.600;2023-02-28T19:53:26;4.40;95.00
59771;DHT22;45649;53.014;6.600;2023-02-28T19:55:53;4.30;95.50
59771;DHT22;45649;53.014;6.600;2023-02-28T19:58:21;4.30;95.70
59771;DHT22;45649;53.014;6.600;2023-02-28T20:00:46;4.20;95.60
59771;DHT22;45649;53.014;6.600;2023-02-28T20:03:12;4.20;95.50
59771;DHT22;45649;53.014;6.600;2023-02-28T20:05:38;4.20;95.50
59771;DHT22;45649;53.014;6.600;2023-02-28T20:08:05;4.10;95.60
59771;DHT22;45649;53.014;6.600;2023-02-28T20:10:32;4.00;96.40
59771;DHT22;45649;53.014;6.600;2023-02-28T20:12:58;4.00;97.00
59771;DHT22;45649;53.014;6.600;2023-02-28T20:15:24;3.90;97.50
59771;DHT22;45649;53.014;6.600;2023-02-28T20:17:49;3.90;97.70
59771;DHT22;45649;53.014;6.600;2023-02-28T20:20:15;4.00;97.70
59771;DHT22;45649;53.014;6.600;2023-02-28T20:22:41;4.00;97.60
59771;DHT22;45649;53.014;6.600;2023-02-28T20:25:07;3.90;97.50
59771;DHT22;45649;53.014;6.600;2023-02-28T20:27:33;3.90;97.60
59771;DHT22;45649;53.014;6.600;2023-02-28T20:30:00;4.00;97.50
59771;DHT22;45649;53.014;6.600;2023-02-28T20:32:26;4.00;97.00
59771;DHT22;45649;53.014;6.600;2023-02-28T20:34:52;4.00;97.10
59771;DHT22;45649;53.014;6.600;2023-02-28T20:37:18;3.90;97.00
59771;DHT22;45649;53.014;6.600;2023-02-28T20:39:43;3.90;97.30
59771;DHT22;45649;53.014;6.600;2023-02-28T20:42:09;3.90;97.20
59771;DHT22;45649;53.014;6.600;2023-02-28T20:44:35;3.80;97.00
59771;DHT22;45649;53.014;6.600;2023-02-28T20:47:01;3.90;97.10
59771;DHT22;45649;53.014;6.600;2023-02-28T20:49:28;3.90;97.00
59771;DHT22;45649;53.014;6.600;2023-02-28T20:51:54;3.80;97.00
59771;DHT22;45649;53.014;6.600;2023-02-28T20:54:20;4.10;95.30
59771;DHT22;45649;53.014;6.600;2023-02-28T20:56:46;3.90;95.70
59771;DHT22;45649;53.014;6.600;2023-02-28T20:59:12;3.80;96.70
59771;DHT22;45649;53.014;6.600;2023-02-28T21:01:38;3.70;96.50
59771;DHT22;45649;53.014;6.600;2023-02-28T21:04:06;3.70;97.00
59771;DHT22;45649;53.014;6.600;2023-02-28T21:06:34;3.70;97.00
59771;DHT22;45649;53.014;6.600;2023-02-28T21:09:06;3.60;97.10
59771;DHT22;45649;53.014;6.600;2023-02-28T21:11:34;3.50;98.10
59771;DHT22;45649;53.014;6.600;2023-02-28T21:14:02;3.50;98.90
59771;DHT22;45649;53.014;6.600;2023-02-28T21:16:28;3.60;98.80
59771;DHT22;45649;53.014;6.600;2023-02-28T21:18:57;3.60;98.70
59771;DHT22;45649;53.014;6.600;2023-02-28T21:21:29;3.50;98.60
59771;DHT22;45649;53.014;6.600;2023-02-28T21:23:55;3.50;98.40
59771;DHT22;45649;53.014;6.600;2023-02-28T21:26:22;3.40;98.00
59771;DHT22;45649;53.014;6.600;2023-02-28T21:28:53;3.40;98.80
59771;DHT22;45649;53.014;6.600;2023-02-28T21:31:21;3.40;99.50
59771;DHT22;45649;53.014;6.600;2023-02-28T21:33:47;3.30;99.70
59771;DHT22;45649;53.014;6.600;2023-02-28T21:36:16;3.30;99.80
59771;DHT22;45649;53.014;6.600;2023-02-28T21:38:43;3.30;99.50
59771;DHT22;45649;53.014;6.600;2023-02-28T21:41:12;3.20;99.80
59771;DHT22;45649;53.014;6.600;2023-02-28T21:43:38;3.20;99.90
59771;DHT22;45649;53.014;6.600;2023-02-28T21:46:06;3.10;99.90
59771;DHT22;45649;53.014;6.600;2023-02-28T21:48:34;3.10;99.90
59771;DHT22;45649;53.014;6.600;2023-02-28T21:51:01;3.10;99.90
59771;DHT22;45649;53.014;6.600;2023-02-28T21:53:31;3.20;99.90
59771;DHT22;45649;53.014;6.600;2023-02-28T21:56:05;3.10;99.70
59771;DHT22;45649;53.014;6.600;2023-02-28T21:58:31;3.10;99.50
59771;DHT22;45649;53.014;6.600;2023-02-28T22:01:09;3.10;99.10
59771;DHT22;45649;53.014;6.600;2023-02-28T22:03:36;3.10;98.80
59771;DHT22;45649;53.014;6.600;2023-02-28T22:06:18;3.10;99.00
59771;DHT22;45649;53.014;6.600;2023-02-28T22:08:47;3.10;98.60
59771;DHT22;45649;53.014;6.600;2023-02-28T22:11:13;3.00;98.60
59771;DHT22;45649;53.014;6.600;2023-02-28T22:13:40;3.00;98.60
59771;DHT22;45649;53.014;6.600;2023-02-28T22:16:09;2.90;99.90
59771;DHT22;45649;53.014;6.600;2023-02-28T22:18:36;2.90;99.90
59771;DHT22;45649;53.014;6.600;2023-02-28T22:21:03;2.90;99.90
59771;DHT22;45649;53.014;6.600;2023-02-28T22:23:30;2.80;99.90
59771;DHT22;45649;53.014;6.600;2023-02-28T22:25:56;2.70;99.90
59771;DHT22;45649;53.014;6.600;2023-02-28T22:28:24;2.60;99.90
59771;DHT22;45649;53.014;6.600;2023-02-28T22:30:52;2.50;99.90
59771;DHT22;45649;53.014;6.600;2023-02-28T22:33:17;2.60;99.90
59771;DHT22;45649;53.014;6.600;2023-02-28T22:35:44;2.70;99.90
59771;DHT22;45649;53.014;6.600;2023-02-28T22:38:11;2.70;99.90
59771;DHT22;45649;53.014;6.600;2023-02-28T22:40:37;2.60;99.90
59771;DHT22;45649;53.014;6.600;2023-02-28T22:43:04;2.60;99.90
59771;DHT22;45649;53.014;6.600;2023-02-28T22:45:34;2.60;99.90
59771;DHT22;45649;53.014;6.600;2023-02-28T22:47:59;2.60;99.90
59771;DHT22;45649;53.014;6.600;2023-02-28T22:50:25;2.60;99.90
59771;DHT22;45649;53.014;6.600;2023-02-28T22:52:51;2.60;99.90
59771;DHT22;45649;53.014;6.600;2023-02-28T22:55:17;2.60;99.90
59771;DHT22;45649;53.014;6.600;2023-02-28T22:57:42;2.60;99.90
59771;DHT22;45649;53.014;6.600;2023-02-28T23:00:10;2.50;99.90
59771;DHT22;45649;53.014;6.600;2023-02-28T23:02:43;2.50;99.90
59771;DHT22;45649;53.014;6.600;2023-02-28T23:05:10;2.50;99.90
59771;DHT22;45649;53.014;6.600;2023-02-28T23:07:37;2.50;99.90
59771;DHT22;45649;53.014;6.600;2023-02-28T23:10:06;2.50;99.90
59771;DHT22;45649;53.014;6.600;2023-02-28T23:12:32;2.50;99.90
59771;DHT22;45649;53.014;6.600;2023-02-28T23:14:58;2.40;99.90
59771;DHT22;45649;53.014;6.600;2023-02-28T23:17:23;2.40;99.90
59771;DHT22;45649;53.014;6.600;2023-02-28T23:19:49;2.40;99.90
59771;DHT22;45649;53.014;6.600;2023-02-28T23:22:15;2.40;99.90
59771;DHT22;45649;53.014;6.600;2023-02-28T23:24:41;2.40;99.90
59771;DHT22;45649;53.014;6.600;2023-02-28T23:27:06;2.40;99.90
59771;DHT22;45649;53.014;6.600;2023-02-28T23:29:33;2.40;99.90
59771;DHT22;45649;53.014;6.600;2023-02-28T23:31:59;2.40;99.90
59771;DHT22;45649;53.014;6.600;2023-02-28T23:34:25;2.40;99.90
59771;DHT22;45649;53.014;6.600;2023-02-28T23:36:56;2.30;99.90
59771;DHT22;45649;53.014;6.600;2023-02-28T23:39:23;2.30;99.90
59771;DHT22;45649;53.014;6.600;2023-02-28T23:41:50;2.30;99.90
59771;DHT22;45649;53.014;6.600;2023-02-28T23:44:16;2.30;99.90
59771;DHT22;45649;53.014;6.600;2023-02-28T23:46:47;2.30;99.90
59771;DHT22;45649;53.014;6.600;2023-02-28T23:49:14;2.30;99.90
59771;DHT22;45649;53.014;6.600;2023-02-28T23:51:40;2.20;99.90
59771;DHT22;45649;53.014;6.600;2023-02-28T23:54:06;2.20;99.90
59771;DHT22;45649;53.014;6.600;2023-02-28T23:56:31;2.20;99.90
59771;DHT22;45649;53.014;6.600;2023-02-28T23:58:58;2.10;99.90
